METAR Data
IDs: Format: Raw Decoded Include TAF

Data at: 0152 UTC 20 Jan 2022

LOWG 200120Z AUTO 29004KT 270V360 6000 FEW003 M05/M06 Q1019